Dell Rapids, SD (57022)

9:20 AM CST on February 12, 2016 (GMT -0600)
IEM | | Change Station
CLOSE
Current Station
Personal Weather Station
Location: Baltic, SD
Elevation: 1509 ft
Nearby Weather Stations

Elev 1509 ft 43.76 °N, 96.74 °W | Updated 22 minutes ago

Mostly Cloudy
Mostly Cloudy
10 °F
Feels Like 10 °F
N
3
Wind Variable Wind from West
Gusts 0.0 mph

Today
High -- | Low -- °F
--% Chance of Precip.
Yesterday
High -- | Low -- °F
Precip. -- in
Pressure 30.55 in
Visibility 10.0 miles
Clouds Scattered Clouds 9000 ft
Windchill 10 °F
Dew Point 10 °F
Humidity 100%
Rainfall in
Snow Depth Not available.
7:30 AM 5:52 PM
Waxing Crescent, 21% visible
METAR KFSD 121456Z 35011KT 10SM SCT090 M11/M14 A3045 RMK AO2 SLP345 T11111144 53031
Pressure 30.55 in
Visibility 10.0 miles
Clouds Scattered Clouds 9000 ft
Windchill 10 °F
Dew Point 10 °F
Humidity 100%
Rainfall in
Snow Depth Not available.
7:30 AM 5:52 PM
Waxing Crescent, 21% visible
METAR KFSD 121456Z 35011KT 10SM SCT090 M11/M14 A3045 RMK AO2 SLP345 T11111144 53031

10-Day Weather Forecast

Almanac

Astronomy

Feb. 12, 2016 Rise Set
Actual Time
Civil Twilight
Nautical Twilight
Astronomical Twilight
Moon
Length of Visible Light
Length of Day
Tomorrow will be .
, % of the Moon is Illuminated

Today's Extremes

State Highs State Lows

Community

WunderPhotos

Upload Photos

1,892,329 photos uploaded!

WunderBlog® & News

Nearby

Air Quality

  Air Quality AQ Index Pollutant
Not available.

Snow Depth

Station Depth Elevation

Earthquake Activity

City Distance Mag. Time & Date
Minimum magnitude displayed is 2.5.

Coastal Water Temperatures

Place Temperature

Stations

Nearby Weather Stations

Station Location Temp. Windchill Dew Point Humidity Wind Precip. Elev Updated Type
                   

Watches & Warnings

There are currently no watches in effect.